createdAt,value
2022-10-18T00:02:17.002Z,16.02
2022-10-18T00:04:45.333Z,16.02
2022-10-18T00:07:13.678Z,16.01
2022-10-18T00:09:42.163Z,16.01
2022-10-18T00:12:11.801Z,16.01
2022-10-18T00:14:40.075Z,15.99
2022-10-18T00:17:08.389Z,16.00
2022-10-18T00:19:36.731Z,15.99
2022-10-18T00:22:05.055Z,15.99
2022-10-18T00:24:33.343Z,15.99
2022-10-18T00:27:01.606Z,15.98
2022-10-18T00:29:31.248Z,15.98
2022-10-18T00:31:59.594Z,15.99
2022-10-18T00:34:27.965Z,15.98
2022-10-18T00:36:56.296Z,15.98
2022-10-18T00:39:24.612Z,15.99
2022-10-18T00:41:53.146Z,15.98
2022-10-18T00:44:58.350Z,15.98
2022-10-18T00:47:28.222Z,15.96
2022-10-18T00:49:59.177Z,15.97
2022-10-18T00:52:34.753Z,15.96
2022-10-18T00:55:04.071Z,15.96
2022-10-18T00:57:33.314Z,15.95
2022-10-18T01:00:01.760Z,15.95
2022-10-18T01:02:33.718Z,15.95
2022-10-18T01:05:02.190Z,15.95
2022-10-18T01:07:47.349Z,15.95
2022-10-18T01:10:27.892Z,15.95
2022-10-18T01:13:09.663Z,15.95
2022-10-18T01:15:47.490Z,15.95
2022-10-18T01:18:23.863Z,15.95
2022-10-18T01:21:25.339Z,15.94
2022-10-18T01:24:21.738Z,15.93
2022-10-18T01:27:18.182Z,15.93
2022-10-18T01:30:01.951Z,15.93
2022-10-18T01:32:38.504Z,15.92
2022-10-18T01:35:14.776Z,15.92
2022-10-18T01:37:46.889Z,15.90
2022-10-18T01:40:19.655Z,15.90
2022-10-18T01:42:49.973Z,15.90
2022-10-18T01:45:20.021Z,15.89
2022-10-18T01:47:50.992Z,15.87
2022-10-18T01:50:29.348Z,15.87
2022-10-18T01:52:58.110Z,15.87
2022-10-18T01:55:32.367Z,15.85
2022-10-18T01:58:08.871Z,15.85
2022-10-18T02:00:41.015Z,15.85
2022-10-18T02:03:16.434Z,15.86
2022-10-18T02:05:49.589Z,15.84
2022-10-18T02:08:26.601Z,15.85
2022-10-18T02:11:01.818Z,15.84
2022-10-18T02:13:35.486Z,15.83
2022-10-18T02:16:09.125Z,15.83
2022-10-18T02:18:43.146Z,15.82
2022-10-18T02:21:15.209Z,15.83
2022-10-18T02:23:45.980Z,15.82
2022-10-18T02:26:15.533Z,15.83
2022-10-18T02:28:44.676Z,15.82
2022-10-18T02:31:19.833Z,15.82
2022-10-18T02:33:54.646Z,15.82
2022-10-18T02:36:26.968Z,15.81
2022-10-18T02:39:14.270Z,15.80
2022-10-18T02:41:43.041Z,15.79
2022-10-18T02:44:11.665Z,15.80
2022-10-18T02:46:41.230Z,15.80
2022-10-18T02:49:10.926Z,15.80
2022-10-18T02:51:39.228Z,15.79
2022-10-18T02:54:08.349Z,15.78
2022-10-18T02:56:36.878Z,15.79
2022-10-18T02:59:07.294Z,15.79
2022-10-18T03:01:36.171Z,15.78
2022-10-18T03:04:05.308Z,15.78
2022-10-18T03:06:35.161Z,15.79
2022-10-18T03:09:04.294Z,15.78
2022-10-18T03:11:32.845Z,15.79
2022-10-18T03:14:01.222Z,15.78
2022-10-18T03:16:29.606Z,15.79
2022-10-18T03:18:57.936Z,15.79
2022-10-18T03:21:26.354Z,15.79
2022-10-18T03:23:56.076Z,15.78
2022-10-18T03:26:24.408Z,15.78
2022-10-18T03:28:52.826Z,15.79
2022-10-18T03:31:21.307Z,15.79
2022-10-18T03:33:49.849Z,15.79
2022-10-18T03:36:18.246Z,15.79
2022-10-18T03:38:46.577Z,15.79
2022-10-18T03:41:16.263Z,15.79
2022-10-18T03:43:44.641Z,15.79
2022-10-18T03:46:13.301Z,15.79
2022-10-18T03:48:41.618Z,15.78
2022-10-18T03:51:09.960Z,15.80
2022-10-18T03:53:38.307Z,15.79
2022-10-18T03:56:07.273Z,15.80
2022-10-18T03:58:36.984Z,15.79
2022-10-18T04:01:05.253Z,15.79
2022-10-18T04:03:33.556Z,15.80
2022-10-18T04:06:03.478Z,15.79
2022-10-18T04:08:31.819Z,15.79
2022-10-18T04:11:00.170Z,15.79
2022-10-18T04:13:28.557Z,15.79
2022-10-18T04:15:58.224Z,15.79
2022-10-18T04:18:26.639Z,15.78
2022-10-18T04:20:54.938Z,15.78
2022-10-18T04:23:23.270Z,15.78
2022-10-18T04:25:51.607Z,15.78
2022-10-18T04:28:19.918Z,15.78
2022-10-18T04:30:51.330Z,15.78
2022-10-18T04:33:21.518Z,15.78
2022-10-18T04:35:52.932Z,15.77
2022-10-18T04:38:21.383Z,15.78
2022-10-18T04:40:49.713Z,15.78
2022-10-18T04:43:18.008Z,15.78
2022-10-18T04:45:46.652Z,15.79
2022-10-18T04:48:14.976Z,15.79
2022-10-18T04:50:44.838Z,15.79
2022-10-18T04:53:15.933Z,15.79
2022-10-18T04:55:45.371Z,15.79
2022-10-18T04:58:13.945Z,15.79
2022-10-18T05:00:42.636Z,15.78
2022-10-18T05:03:13.532Z,15.79
2022-10-18T05:06:00.842Z,15.79
2022-10-18T05:08:33.098Z,15.78
2022-10-18T05:11:02.152Z,15.79
2022-10-18T05:13:31.299Z,15.76
2022-10-18T05:16:00.687Z,15.78
2022-10-18T05:18:29.462Z,15.78
2022-10-18T05:20:58.221Z,15.77
2022-10-18T05:23:26.773Z,15.78
2022-10-18T05:25:56.446Z,15.80
2022-10-18T05:28:41.456Z,15.80
2022-10-18T05:31:12.604Z,15.80
2022-10-18T05:33:41.156Z,15.81
2022-10-18T05:36:10.757Z,15.81
2022-10-18T05:38:41.877Z,15.81
2022-10-18T05:41:11.961Z,15.82
2022-10-18T05:43:40.920Z,15.80
2022-10-18T05:46:14.701Z,15.80
2022-10-18T05:48:44.860Z,15.79
2022-10-18T05:51:13.443Z,15.80
2022-10-18T05:53:41.773Z,15.82
2022-10-18T05:56:12.668Z,15.83
2022-10-18T05:58:41.194Z,15.82
2022-10-18T06:01:10.945Z,15.83
2022-10-18T06:03:39.397Z,15.83
2022-10-18T06:06:10.486Z,15.85
2022-10-18T06:08:39.909Z,15.85
2022-10-18T06:11:09.859Z,15.85
2022-10-18T06:13:43.043Z,15.85
2022-10-18T06:16:12.617Z,15.85
2022-10-18T06:18:41.433Z,15.86
2022-10-18T06:21:10.350Z,15.86
2022-10-18T06:23:38.634Z,15.86
2022-10-18T06:26:08.476Z,15.87
2022-10-18T06:28:38.344Z,15.86
2022-10-18T06:31:08.484Z,15.87
2022-10-18T06:33:37.065Z,15.87
2022-10-18T06:36:08.430Z,15.88
2022-10-18T06:38:39.731Z,15.88
2022-10-18T06:41:08.783Z,15.88
2022-10-18T06:43:37.183Z,15.90
2022-10-18T06:46:08.896Z,15.90
2022-10-18T06:48:38.008Z,15.90
2022-10-18T06:51:08.764Z,15.91
2022-10-18T06:53:44.627Z,15.91
2022-10-18T06:56:27.375Z,15.91
2022-10-18T06:58:55.804Z,15.93
2022-10-18T07:01:25.600Z,15.93
2022-10-18T07:03:55.148Z,15.95
2022-10-18T07:06:24.509Z,15.94
2022-10-18T07:08:54.174Z,15.96
2022-10-18T07:11:25.057Z,15.96
2022-10-18T07:13:55.054Z,15.98
2022-10-18T07:16:24.724Z,15.99
2022-10-18T07:18:53.404Z,15.99
2022-10-18T07:21:24.682Z,15.99
2022-10-18T07:23:53.587Z,15.99
2022-10-18T07:26:25.558Z,16.01
2022-10-18T07:28:57.716Z,16.03
2022-10-18T07:32:17.161Z,16.03
2022-10-18T07:34:48.555Z,16.04
2022-10-18T07:37:16.971Z,16.07
2022-10-18T07:39:45.317Z,16.08
2022-10-18T07:42:13.669Z,16.09
2022-10-18T07:44:42.053Z,16.11
2022-10-18T07:47:12.032Z,16.12
2022-10-18T07:49:40.547Z,16.14
2022-10-18T07:52:10.237Z,16.17
2022-10-18T07:54:38.613Z,16.19
2022-10-18T07:57:06.998Z,16.22
2022-10-18T07:59:35.278Z,16.23
2022-10-18T08:02:03.615Z,16.24
2022-10-18T08:04:31.989Z,16.25
2022-10-18T08:07:00.276Z,16.25
2022-10-18T08:09:30.020Z,16.25
2022-10-18T08:11:58.382Z,16.26
2022-10-18T08:14:26.821Z,16.26
2022-10-18T08:16:56.549Z,16.29
2022-10-18T08:19:24.949Z,16.29
2022-10-18T08:21:53.317Z,16.30
2022-10-18T08:24:21.596Z,16.32
2022-10-18T08:26:51.551Z,16.34
2022-10-18T08:29:26.730Z,16.35
2022-10-18T08:31:56.391Z,16.40
2022-10-18T08:34:24.809Z,16.40
2022-10-18T08:36:53.155Z,16.42
2022-10-18T08:39:21.605Z,16.44
2022-10-18T08:42:17.439Z,16.45
2022-10-18T08:44:48.265Z,16.48
2022-10-18T08:47:20.634Z,16.50
2022-10-18T08:49:52.795Z,16.52
2022-10-18T08:52:32.648Z,16.54
2022-10-18T08:55:03.713Z,16.56
2022-10-18T08:57:34.158Z,16.56
2022-10-18T09:00:03.332Z,16.57
2022-10-18T09:02:47.960Z,16.60
2022-10-18T09:05:25.939Z,16.60
2022-10-18T09:08:33.034Z,16.62
2022-10-18T09:11:10.989Z,16.63
2022-10-18T09:14:00.335Z,16.63
2022-10-18T09:16:38.606Z,16.65
2022-10-18T09:19:19.056Z,16.65
2022-10-18T09:21:53.307Z,16.66
2022-10-18T09:24:28.187Z,16.68
2022-10-18T09:27:06.305Z,16.69
2022-10-18T09:29:50.759Z,16.72
2022-10-18T09:32:28.981Z,16.74
2022-10-18T09:35:00.818Z,16.75
2022-10-18T09:37:33.378Z,16.76
2022-10-18T09:40:07.759Z,16.78
2022-10-18T09:42:40.359Z,16.80
2022-10-18T09:45:28.226Z,16.82
2022-10-18T09:48:06.905Z,16.84
2022-10-18T09:50:40.272Z,16.86
2022-10-18T09:53:19.050Z,16.88
2022-10-18T09:56:01.671Z,16.90
2022-10-18T09:58:41.496Z,16.93
2022-10-18T10:01:12.564Z,16.95
2022-10-18T10:03:42.282Z,16.97
2022-10-18T10:06:18.564Z,17.01
2022-10-18T10:08:50.435Z,17.04
2022-10-18T10:11:34.304Z,17.07
2022-10-18T10:14:11.106Z,17.12
2022-10-18T10:16:50.922Z,17.18
2022-10-18T10:19:23.296Z,17.23
2022-10-18T10:21:53.728Z,17.30
2022-10-18T10:24:31.287Z,17.34
2022-10-18T10:27:02.555Z,17.35
2022-10-18T10:30:07.337Z,17.38
2022-10-18T10:32:47.920Z,17.41
2022-10-18T10:35:54.584Z,17.42
2022-10-18T10:38:27.043Z,17.42
2022-10-18T10:40:55.820Z,17.43
2022-10-18T10:43:42.257Z,17.44
2022-10-18T10:46:13.229Z,17.43
2022-10-18T10:48:49.292Z,17.43
2022-10-18T10:51:29.239Z,17.41
2022-10-18T10:54:02.924Z,17.41
2022-10-18T10:56:33.291Z,17.40
2022-10-18T10:59:10.391Z,17.40
2022-10-18T11:01:38.752Z,17.43
2022-10-18T11:04:27.506Z,17.50
2022-10-18T11:07:07.799Z,17.59
2022-10-18T11:09:46.576Z,17.66
2022-10-18T11:12:29.617Z,17.74
2022-10-18T11:15:09.955Z,17.78
2022-10-18T11:17:45.096Z,17.82
2022-10-18T11:20:23.098Z,17.83
2022-10-18T11:23:01.174Z,17.84
2022-10-18T11:25:45.461Z,17.82
2022-10-18T11:28:25.145Z,17.85
2022-10-18T11:31:07.177Z,17.82
2022-10-18T11:34:10.705Z,17.81
2022-10-18T11:36:50.398Z,17.82
2022-10-18T11:39:42.805Z,17.86
2022-10-18T11:42:18.683Z,17.89
2022-10-18T11:44:56.814Z,17.98
2022-10-18T11:47:34.576Z,18.10
2022-10-18T11:50:12.311Z,18.21
2022-10-18T11:52:49.687Z,18.31
2022-10-18T11:55:33.256Z,18.41
2022-10-18T11:58:11.342Z,18.50
2022-10-18T12:00:49.067Z,18.58
2022-10-18T12:03:28.201Z,18.66
2022-10-18T12:05:59.127Z,18.70
2022-10-18T12:08:34.443Z,18.71
2022-10-18T12:11:11.265Z,18.69
2022-10-18T12:13:45.308Z,18.66
2022-10-18T12:16:14.021Z,18.64
2022-10-18T12:18:50.681Z,18.61
2022-10-18T12:21:25.484Z,18.60
2022-10-18T12:23:59.496Z,18.60
2022-10-18T12:26:29.756Z,18.60
2022-10-18T12:29:07.366Z,18.63
2022-10-18T12:31:41.160Z,18.63
2022-10-18T12:34:31.081Z,18.60
2022-10-18T12:37:27.629Z,18.58
2022-10-18T12:40:20.277Z,18.56
2022-10-18T12:42:51.399Z,18.58
2022-10-18T12:45:32.238Z,18.63
2022-10-18T12:48:02.018Z,18.69
2022-10-18T12:50:35.942Z,18.73
2022-10-18T12:53:08.868Z,18.77
2022-10-18T12:55:40.256Z,18.85
2022-10-18T12:58:25.328Z,18.94
2022-10-18T13:01:01.166Z,19.01
2022-10-18T13:03:39.115Z,19.06
2022-10-18T13:06:07.904Z,19.09
2022-10-18T13:08:42.037Z,19.11
2022-10-18T13:11:35.956Z,19.13
2022-10-18T13:14:26.055Z,19.20
2022-10-18T13:17:00.862Z,19.15
2022-10-18T13:19:36.808Z,19.14
2022-10-18T13:22:20.792Z,19.12
2022-10-18T13:25:02.200Z,19.18
2022-10-18T13:27:42.894Z,19.28
2022-10-18T13:30:36.475Z,19.44
2022-10-18T13:33:29.735Z,19.58
2022-10-18T13:35:59.767Z,19.73
2022-10-18T13:38:36.450Z,19.88
2022-10-18T13:41:07.662Z,20.02
2022-10-18T13:44:10.862Z,20.04
2022-10-18T13:47:10.699Z,20.09
2022-10-18T13:49:50.565Z,20.15
2022-10-18T13:52:26.754Z,20.16
2022-10-18T13:55:17.143Z,20.09
2022-10-18T13:57:59.309Z,19.96
2022-10-18T14:00:49.509Z,19.92
2022-10-18T14:06:24.809Z,20.11
2022-10-18T14:08:58.873Z,20.20
2022-10-18T14:11:34.151Z,20.24
2022-10-18T14:14:13.821Z,20.24
2022-10-18T14:16:50.705Z,20.29
2022-10-18T14:19:27.835Z,20.43
2022-10-18T14:22:00.319Z,20.57
2022-10-18T14:24:30.173Z,20.73
2022-10-18T14:27:18.742Z,20.80
2022-10-18T14:29:47.984Z,20.85
2022-10-18T14:32:27.765Z,20.93
2022-10-18T14:35:20.644Z,21.02
2022-10-18T14:37:47.736Z,21.14
2022-10-18T14:40:31.353Z,21.18
2022-10-18T14:43:04.153Z,21.12
2022-10-18T14:45:32.445Z,21.02
2022-10-18T14:48:14.540Z,21.00
2022-10-18T14:50:44.433Z,21.00
2022-10-18T14:53:20.935Z,21.03
2022-10-18T14:55:56.500Z,21.09
2022-10-18T14:58:30.132Z,21.17
2022-10-18T15:01:01.675Z,21.22
2022-10-18T15:03:36.752Z,21.24
2022-10-18T15:06:08.407Z,21.30
2022-10-18T15:08:40.755Z,21.37
2022-10-18T15:11:13.358Z,21.37
2022-10-18T15:13:49.253Z,21.28
2022-10-18T15:16:19.510Z,21.20
2022-10-18T15:19:02.949Z,21.07
2022-10-18T15:21:31.473Z,20.95
2022-10-18T15:24:21.687Z,20.77
2022-10-18T15:26:51.436Z,20.57
2022-10-18T15:29:20.928Z,20.41
2022-10-18T15:31:50.848Z,20.25
2022-10-18T15:34:24.601Z,20.10
2022-10-18T15:36:55.618Z,19.94
2022-10-18T15:39:25.768Z,19.80
2022-10-18T15:41:55.722Z,19.65
2022-10-18T15:44:26.803Z,19.49
2022-10-18T15:46:56.861Z,19.35
2022-10-18T15:49:51.995Z,19.18
2022-10-18T15:52:35.245Z,19.03
2022-10-18T15:55:20.545Z,18.87
2022-10-18T15:57:48.789Z,18.72
2022-10-18T16:00:20.626Z,18.60
2022-10-18T16:02:48.976Z,18.46
2022-10-18T16:05:18.971Z,18.32
2022-10-18T16:07:52.003Z,18.20
2022-10-18T16:10:20.382Z,18.07
2022-10-18T16:12:48.736Z,17.96
2022-10-18T16:15:17.087Z,17.83
2022-10-18T16:17:45.422Z,17.67
2022-10-18T16:20:21.578Z,17.52
2022-10-18T16:22:50.011Z,17.39
2022-10-18T16:25:18.708Z,17.27
2022-10-18T16:27:47.001Z,17.17
2022-10-18T16:30:18.675Z,17.06
2022-10-18T16:32:48.822Z,16.94
2022-10-18T16:35:17.110Z,16.83
2022-10-18T16:37:46.827Z,16.69
2022-10-18T16:40:23.455Z,16.57
2022-10-18T16:42:51.845Z,16.47
2022-10-18T16:45:20.193Z,16.36
2022-10-18T16:47:48.620Z,16.26
2022-10-18T16:50:18.695Z,16.15
2022-10-18T16:52:48.521Z,16.04
2022-10-18T16:55:22.068Z,15.94
2022-10-18T16:57:51.333Z,15.87
2022-10-18T17:00:23.057Z,15.79
2022-10-18T17:02:51.557Z,15.68
2022-10-18T17:05:20.133Z,15.60
2022-10-18T17:07:50.059Z,15.52
2022-10-18T17:10:21.772Z,15.42
2022-10-18T17:12:50.110Z,15.35
2022-10-18T17:15:19.433Z,15.25
2022-10-18T17:17:49.922Z,15.16
2022-10-18T17:20:22.252Z,15.09
2022-10-18T17:22:51.914Z,14.98
2022-10-18T17:25:21.155Z,14.91
2022-10-18T17:27:49.478Z,14.83
2022-10-18T17:30:17.993Z,14.75
2022-10-18T17:32:46.284Z,14.66
2022-10-18T17:35:14.554Z,14.60
2022-10-18T17:37:45.414Z,14.52
2022-10-18T17:40:15.971Z,14.44
2022-10-18T17:42:44.450Z,14.37
2022-10-18T17:45:13.085Z,14.30
2022-10-18T17:47:41.460Z,14.24
2022-10-18T17:50:10.250Z,14.17
2022-10-18T17:55:12.440Z,14.02
2022-10-18T17:57:43.157Z,13.95
2022-10-18T18:00:13.746Z,13.91
2022-10-18T18:02:43.517Z,13.86
2022-10-18T18:05:12.609Z,13.80
2022-10-18T18:07:40.915Z,13.73
2022-10-18T18:10:09.777Z,13.67
2022-10-18T18:12:38.079Z,13.63
2022-10-18T18:15:08.707Z,13.56
2022-10-18T18:17:55.960Z,13.51
2022-10-18T18:20:25.311Z,13.45
2022-10-18T18:22:53.990Z,13.39
2022-10-18T18:25:22.301Z,13.34
2022-10-18T18:27:50.903Z,13.29
2022-10-18T18:30:21.757Z,13.24
2022-10-18T18:32:50.049Z,13.19
2022-10-18T18:35:18.597Z,13.13
2022-10-18T18:37:50.948Z,13.09
2022-10-18T18:40:19.422Z,13.04
2022-10-18T18:43:01.663Z,12.99
2022-10-18T18:45:37.274Z,12.96
2022-10-18T18:48:06.011Z,12.92
2022-10-18T18:50:37.134Z,12.90
2022-10-18T18:53:05.432Z,12.86
2022-10-18T18:55:34.502Z,12.82
2022-10-18T18:58:02.786Z,12.76
2022-10-18T19:00:31.042Z,12.71
2022-10-18T19:03:00.646Z,12.66
2022-10-18T19:05:29.344Z,12.63
2022-10-18T19:07:57.588Z,12.59
2022-10-18T19:10:26.085Z,12.55
2022-10-18T19:12:54.592Z,12.50
2022-10-18T19:15:23.457Z,12.45
2022-10-18T19:17:51.702Z,12.41
2022-10-18T19:20:21.421Z,12.37
2022-10-18T19:22:49.726Z,12.34
2022-10-18T19:25:18.153Z,12.30
2022-10-18T19:27:46.752Z,12.26
2022-10-18T19:30:15.069Z,12.22
2022-10-18T19:32:43.404Z,12.17
2022-10-18T19:35:11.716Z,12.13
2022-10-18T19:37:41.385Z,12.09
2022-10-18T19:40:10.604Z,12.05
2022-10-18T19:42:39.125Z,12.01
2022-10-18T19:45:08.960Z,11.97
2022-10-18T19:47:38.305Z,11.93
2022-10-18T19:50:07.543Z,11.89
2022-10-18T19:52:36.175Z,11.85
2022-10-18T19:55:07.122Z,11.82
2022-10-18T19:57:35.389Z,11.78
2022-10-18T20:00:08.125Z,11.75
2022-10-18T20:02:39.836Z,11.70
2022-10-18T20:05:08.623Z,11.65
2022-10-18T20:07:37.442Z,11.62
2022-10-18T20:10:09.230Z,11.59
2022-10-18T20:12:37.591Z,11.57
2022-10-18T20:15:08.787Z,11.54
2022-10-18T20:17:37.147Z,11.51
2022-10-18T20:20:06.010Z,11.49
2022-10-18T20:22:34.553Z,11.48
2022-10-18T20:25:02.928Z,11.47
2022-10-18T20:27:32.852Z,11.44
2022-10-18T20:30:01.416Z,11.45
2022-10-18T20:32:29.715Z,11.46
2022-10-18T20:34:58.051Z,11.44
2022-10-18T20:37:26.347Z,11.41
2022-10-18T20:39:54.666Z,11.39
2022-10-18T20:42:22.934Z,11.36
2022-10-18T20:44:52.667Z,11.34
2022-10-18T20:47:21.009Z,11.34
2022-10-18T20:49:49.281Z,11.33
2022-10-18T20:52:17.600Z,11.33
2022-10-18T20:54:45.853Z,11.34
2022-10-18T20:57:14.101Z,11.36
2022-10-18T20:59:42.412Z,11.38
2022-10-18T21:02:13.708Z,11.41
2022-10-18T21:04:42.474Z,11.40
2022-10-18T21:07:10.854Z,11.41
2022-10-18T21:09:39.127Z,11.42
2022-10-18T21:12:07.416Z,11.40
2022-10-18T21:14:35.728Z,11.41
2022-10-18T21:17:04.100Z,11.40
2022-10-18T21:19:34.206Z,11.37
2022-10-18T21:22:02.526Z,11.36
2022-10-18T21:24:31.094Z,11.35
2022-10-18T21:27:00.307Z,11.33
2022-10-18T21:29:30.868Z,11.31
2022-10-18T21:31:59.662Z,11.31
2022-10-18T21:34:28.062Z,11.30
2022-10-18T21:36:57.747Z,11.30
2022-10-18T21:39:31.725Z,11.30
2022-10-18T21:42:09.652Z,11.30
2022-10-18T21:44:37.995Z,11.29
2022-10-18T21:47:09.129Z,11.29
2022-10-18T21:49:38.594Z,11.27
2022-10-18T21:52:08.256Z,11.27
2022-10-18T21:54:43.877Z,11.25
2022-10-18T21:57:12.183Z,11.25
2022-10-18T21:59:40.528Z,11.23
2022-10-18T22:02:13.577Z,11.22
2022-10-18T22:04:44.192Z,11.21
2022-10-18T22:07:13.870Z,11.19
2022-10-18T22:09:47.728Z,11.18
2022-10-18T22:12:21.682Z,11.16
2022-10-18T22:14:50.018Z,11.12
2022-10-18T22:17:18.398Z,11.11
2022-10-18T22:19:47.759Z,11.09
2022-10-18T22:22:17.449Z,11.09
2022-10-18T22:24:49.216Z,11.06
2022-10-18T22:27:17.583Z,11.07
2022-10-18T22:29:45.866Z,11.06
2022-10-18T22:32:14.153Z,11.05
2022-10-18T22:34:42.602Z,11.04
2022-10-18T22:37:11.000Z,11.01
2022-10-18T22:39:41.209Z,11.00
2022-10-18T22:42:09.506Z,10.99
2022-10-18T22:44:37.837Z,10.98
2022-10-18T22:47:06.121Z,10.96
2022-10-18T22:49:34.385Z,10.93
2022-10-18T22:52:02.824Z,10.91
2022-10-18T22:54:31.171Z,10.90
2022-10-18T22:57:00.846Z,10.89
2022-10-18T22:59:29.153Z,10.86
2022-10-18T23:01:58.380Z,10.84
2022-10-18T23:04:27.733Z,10.82
2022-10-18T23:06:56.018Z,10.81
2022-10-18T23:09:24.301Z,10.79
2022-10-18T23:11:52.950Z,10.79
2022-10-18T23:14:22.633Z,10.77
2022-10-18T23:16:50.948Z,10.76
2022-10-18T23:19:19.290Z,10.76
2022-10-18T23:21:50.242Z,10.74
2022-10-18T23:24:18.506Z,10.74
2022-10-18T23:26:46.752Z,10.72
2022-10-18T23:29:15.022Z,10.69
2022-10-18T23:31:44.738Z,10.68
2022-10-18T23:34:13.073Z,10.65
2022-10-18T23:36:41.695Z,10.63
2022-10-18T23:39:11.618Z,10.60
2022-10-18T23:41:40.114Z,10.57
2022-10-18T23:44:09.033Z,10.55
2022-10-18T23:46:37.394Z,10.53
2022-10-18T23:49:07.010Z,10.51
2022-10-18T23:51:35.271Z,10.51
2022-10-18T23:54:03.541Z,10.49
2022-10-18T23:56:31.815Z,10.48
2022-10-18T23:59:00.064Z,10.46
